sensor_id;sensor_type;location;lat;lon;timestamp;temperature;humidity
65058;HTU21D;51644;51.068;5.860;2023-05-07T00:00:45;17.53;76.37
65058;HTU21D;51644;51.068;5.860;2023-05-07T00:01:57;17.54;76.33
65058;HTU21D;51644;51.068;5.860;2023-05-07T00:02:56;17.53;76.31
65058;HTU21D;51644;51.068;5.860;2023-05-07T00:03:55;17.54;76.29
65058;HTU21D;51644;51.068;5.860;2023-05-07T00:04:57;17.52;76.33
65058;HTU21D;51644;51.068;5.860;2023-05-07T00:06:06;17.52;76.37
65058;HTU21D;51644;51.068;5.860;2023-05-07T00:07:05;17.53;76.38
65058;HTU21D;51644;51.068;5.860;2023-05-07T00:08:04;17.53;76.38
65058;HTU21D;51644;51.068;5.860;2023-05-07T00:09:06;17.55;76.25
65058;HTU21D;51644;51.068;5.860;2023-05-07T00:10:10;17.55;76.16
65058;HTU21D;51644;51.068;5.860;2023-05-07T00:11:19;17.55;76.12
65058;HTU21D;51644;51.068;5.860;2023-05-07T00:12:21;17.55;76.18
65058;HTU21D;51644;51.068;5.860;2023-05-07T00:13:30;17.55;76.21
65058;HTU21D;51644;51.068;5.860;2023-05-07T00:14:33;17.55;76.24
65058;HTU21D;51644;51.068;5.860;2023-05-07T00:15:34;17.53;76.28
65058;HTU21D;51644;51.068;5.860;2023-05-07T00:16:38;17.53;76.34
65058;HTU21D;51644;51.068;5.860;2023-05-07T00:19:33;17.52;76.45
65058;HTU21D;51644;51.068;5.860;2023-05-07T00:20:40;17.51;76.47
65058;HTU21D;51644;51.068;5.860;2023-05-07T00:21:44;17.48;76.53
65058;HTU21D;51644;51.068;5.860;2023-05-07T00:22:45;17.48;76.62
65058;HTU21D;51644;51.068;5.860;2023-05-07T00:23:47;17.48;76.66
65058;HTU21D;51644;51.068;5.860;2023-05-07T00:24:49;17.48;76.65
65058;HTU21D;51644;51.068;5.860;2023-05-07T00:25:53;17.50;76.60
65058;HTU21D;51644;51.068;5.860;2023-05-07T00:26:54;17.50;76.57
65058;HTU21D;51644;51.068;5.860;2023-05-07T00:27:53;17.51;76.53
65058;HTU21D;51644;51.068;5.860;2023-05-07T00:28:53;17.52;76.47
65058;HTU21D;51644;51.068;5.860;2023-05-07T00:29:52;17.55;76.40
65058;HTU21D;51644;51.068;5.860;2023-05-07T00:30:51;17.55;76.31
65058;HTU21D;51644;51.068;5.860;2023-05-07T00:31:51;17.59;76.25
65058;HTU21D;51644;51.068;5.860;2023-05-07T00:32:52;17.60;76.25
65058;HTU21D;51644;51.068;5.860;2023-05-07T00:33:54;17.61;76.21
65058;HTU21D;51644;51.068;5.860;2023-05-07T00:34:53;17.61;76.19
65058;HTU21D;51644;51.068;5.860;2023-05-07T00:35:54;17.61;76.20
65058;HTU21D;51644;51.068;5.860;2023-05-07T00:37:19;17.60;76.25
65058;HTU21D;51644;51.068;5.860;2023-05-07T00:38:23;17.58;76.27
65058;HTU21D;51644;51.068;5.860;2023-05-07T00:39:27;17.55;76.34
65058;HTU21D;51644;51.068;5.860;2023-05-07T00:40:46;17.53;76.47
65058;HTU21D;51644;51.068;5.860;2023-05-07T00:41:46;17.52;76.52
65058;HTU21D;51644;51.068;5.860;2023-05-07T00:42:48;17.50;76.57
65058;HTU21D;51644;51.068;5.860;2023-05-07T00:43:48;17.49;76.62
65058;HTU21D;51644;51.068;5.860;2023-05-07T00:45:03;17.46;76.71
65058;HTU21D;51644;51.068;5.860;2023-05-07T00:46:16;17.44;76.82
65058;HTU21D;51644;51.068;5.860;2023-05-07T00:47:18;17.41;76.91
65058;HTU21D;51644;51.068;5.860;2023-05-07T00:48:17;17.41;76.99
65058;HTU21D;51644;51.068;5.860;2023-05-07T00:49:44;17.45;76.96
65058;HTU21D;51644;51.068;5.860;2023-05-07T00:50:45;17.45;76.89
65058;HTU21D;51644;51.068;5.860;2023-05-07T00:51:53;17.46;76.86
65058;HTU21D;51644;51.068;5.860;2023-05-07T00:52:57;17.44;76.88
65058;HTU21D;51644;51.068;5.860;2023-05-07T00:53:56;17.46;76.87
65058;HTU21D;51644;51.068;5.860;2023-05-07T00:54:55;17.48;76.80
65058;HTU21D;51644;51.068;5.860;2023-05-07T00:55:55;17.50;76.70
65058;HTU21D;51644;51.068;5.860;2023-05-07T00:56:55;17.52;76.59
65058;HTU21D;51644;51.068;5.860;2023-05-07T00:57:55;17.55;76.46
65058;HTU21D;51644;51.068;5.860;2023-05-07T00:58:54;17.58;76.33
65058;HTU21D;51644;51.068;5.860;2023-05-07T00:59:54;17.61;76.27
65058;HTU21D;51644;51.068;5.860;2023-05-07T01:01:09;17.61;76.16
65058;HTU21D;51644;51.068;5.860;2023-05-07T01:02:11;17.61;76.12
65058;HTU21D;51644;51.068;5.860;2023-05-07T01:03:10;17.62;76.08
65058;HTU21D;51644;51.068;5.860;2023-05-07T01:04:12;17.62;76.02
65058;HTU21D;51644;51.068;5.860;2023-05-07T01:05:14;17.64;75.86
65058;HTU21D;51644;51.068;5.860;2023-05-07T01:06:15;17.65;75.72
65058;HTU21D;51644;51.068;5.860;2023-05-07T01:07:19;17.68;75.54
65058;HTU21D;51644;51.068;5.860;2023-05-07T01:08:18;17.69;75.44
65058;HTU21D;51644;51.068;5.860;2023-05-07T01:09:19;17.70;75.40
65058;HTU21D;51644;51.068;5.860;2023-05-07T01:10:18;17.70;75.34
65058;HTU21D;51644;51.068;5.860;2023-05-07T01:11:18;17.69;75.33
65058;HTU21D;51644;51.068;5.860;2023-05-07T01:12:22;17.68;75.42
65058;HTU21D;51644;51.068;5.860;2023-05-07T01:13:21;17.64;75.54
65058;HTU21D;51644;51.068;5.860;2023-05-07T01:14:28;17.64;75.67
65058;HTU21D;51644;51.068;5.860;2023-05-07T01:15:28;17.58;75.85
65058;HTU21D;51644;51.068;5.860;2023-05-07T01:16:28;17.53;76.02
65058;HTU21D;51644;51.068;5.860;2023-05-07T01:17:27;17.50;76.20
65058;HTU21D;51644;51.068;5.860;2023-05-07T01:18:26;17.49;76.28
65058;HTU21D;51644;51.068;5.860;2023-05-07T01:19:25;17.48;76.33
65058;HTU21D;51644;51.068;5.860;2023-05-07T01:20:26;17.48;76.34
65058;HTU21D;51644;51.068;5.860;2023-05-07T01:21:33;17.48;76.33
65058;HTU21D;51644;51.068;5.860;2023-05-07T01:22:39;17.47;76.34
65058;HTU21D;51644;51.068;5.860;2023-05-07T01:23:39;17.46;76.37
65058;HTU21D;51644;51.068;5.860;2023-05-07T01:24:41;17.45;76.40
65058;HTU21D;51644;51.068;5.860;2023-05-07T01:25:54;17.44;76.42
65058;HTU21D;51644;51.068;5.860;2023-05-07T01:26:55;17.43;76.39
65058;HTU21D;51644;51.068;5.860;2023-05-07T01:27:54;17.44;76.31
65058;HTU21D;51644;51.068;5.860;2023-05-07T01:28:57;17.44;76.23
65058;HTU21D;51644;51.068;5.860;2023-05-07T01:29:56;17.43;76.21
65058;HTU21D;51644;51.068;5.860;2023-05-07T01:31:03;17.39;76.30
65058;HTU21D;51644;51.068;5.860;2023-05-07T01:32:05;17.34;76.45
65058;HTU21D;51644;51.068;5.860;2023-05-07T01:33:13;17.30;76.63
65058;HTU21D;51644;51.068;5.860;2023-05-07T01:34:15;17.26;76.79
65058;HTU21D;51644;51.068;5.860;2023-05-07T01:35:19;17.23;76.86
65058;HTU21D;51644;51.068;5.860;2023-05-07T01:36:21;17.22;76.92
65058;HTU21D;51644;51.068;5.860;2023-05-07T01:37:26;17.20;76.95
65058;HTU21D;51644;51.068;5.860;2023-05-07T01:38:27;17.19;76.94
65058;HTU21D;51644;51.068;5.860;2023-05-07T01:39:27;17.17;76.98
65058;HTU21D;51644;51.068;5.860;2023-05-07T01:40:27;17.14;77.03
65058;HTU21D;51644;51.068;5.860;2023-05-07T01:41:26;17.11;77.08
65058;HTU21D;51644;51.068;5.860;2023-05-07T01:42:29;17.10;77.13
65058;HTU21D;51644;51.068;5.860;2023-05-07T01:43:36;17.07;77.13
65058;HTU21D;51644;51.068;5.860;2023-05-07T01:44:35;17.05;77.20
65058;HTU21D;51644;51.068;5.860;2023-05-07T01:45:35;17.02;77.28
65058;HTU21D;51644;51.068;5.860;2023-05-07T01:46:34;16.99;77.42
65058;HTU21D;51644;51.068;5.860;2023-05-07T01:47:33;16.92;77.61
65058;HTU21D;51644;51.068;5.860;2023-05-07T01:48:35;16.89;77.80
65058;HTU21D;51644;51.068;5.860;2023-05-07T01:49:34;16.85;77.98
65058;HTU21D;51644;51.068;5.860;2023-05-07T01:50:33;16.81;78.10
65058;HTU21D;51644;51.068;5.860;2023-05-07T01:51:36;16.79;78.22
65058;HTU21D;51644;51.068;5.860;2023-05-07T01:52:39;16.77;78.27
65058;HTU21D;51644;51.068;5.860;2023-05-07T01:53:42;16.74;78.31
65058;HTU21D;51644;51.068;5.860;2023-05-07T01:54:42;16.73;78.41
65058;HTU21D;51644;51.068;5.860;2023-05-07T01:55:44;16.71;78.38
65058;HTU21D;51644;51.068;5.860;2023-05-07T01:56:45;16.70;78.43
65058;HTU21D;51644;51.068;5.860;2023-05-07T01:57:46;16.67;78.54
65058;HTU21D;51644;51.068;5.860;2023-05-07T01:58:49;16.64;78.63
65058;HTU21D;51644;51.068;5.860;2023-05-07T01:59:49;16.64;78.68
65058;HTU21D;51644;51.068;5.860;2023-05-07T02:00:49;16.61;78.72
65058;HTU21D;51644;51.068;5.860;2023-05-07T02:01:50;16.59;78.90
65058;HTU21D;51644;51.068;5.860;2023-05-07T02:02:49;16.54;79.09
65058;HTU21D;51644;51.068;5.860;2023-05-07T02:03:57;16.52;79.19
65058;HTU21D;51644;51.068;5.860;2023-05-07T02:04:59;16.50;79.20
65058;HTU21D;51644;51.068;5.860;2023-05-07T02:05:59;16.52;79.17
65058;HTU21D;51644;51.068;5.860;2023-05-07T02:07:07;16.52;79.14
65058;HTU21D;51644;51.068;5.860;2023-05-07T02:08:06;16.51;79.21
65058;HTU21D;51644;51.068;5.860;2023-05-07T02:09:07;16.48;79.37
65058;HTU21D;51644;51.068;5.860;2023-05-07T02:10:09;16.47;79.50
65058;HTU21D;51644;51.068;5.860;2023-05-07T02:11:08;16.44;79.63
65058;HTU21D;51644;51.068;5.860;2023-05-07T02:12:37;16.41;79.88
65058;HTU21D;51644;51.068;5.860;2023-05-07T02:13:46;16.35;80.11
65058;HTU21D;51644;51.068;5.860;2023-05-07T02:14:45;16.33;80.27
65058;HTU21D;51644;51.068;5.860;2023-05-07T02:15:43;16.31;80.41
65058;HTU21D;51644;51.068;5.860;2023-05-07T02:16:48;16.30;80.53
65058;HTU21D;51644;51.068;5.860;2023-05-07T02:18:08;16.29;80.64
65058;HTU21D;51644;51.068;5.860;2023-05-07T02:19:21;16.30;80.62
65058;HTU21D;51644;51.068;5.860;2023-05-07T02:20:21;16.31;80.62
65058;HTU21D;51644;51.068;5.860;2023-05-07T02:21:20;16.31;80.64
65058;HTU21D;51644;51.068;5.860;2023-05-07T02:22:19;16.34;80.62
65058;HTU21D;51644;51.068;5.860;2023-05-07T02:23:18;16.35;80.63
65058;HTU21D;51644;51.068;5.860;2023-05-07T02:24:22;16.36;80.56
65058;HTU21D;51644;51.068;5.860;2023-05-07T02:25:31;16.37;80.59
65058;HTU21D;51644;51.068;5.860;2023-05-07T02:26:31;16.39;80.54
65058;HTU21D;51644;51.068;5.860;2023-05-07T02:27:32;16.40;80.55
65058;HTU21D;51644;51.068;5.860;2023-05-07T02:28:34;16.42;80.59
65058;HTU21D;51644;51.068;5.860;2023-05-07T02:29:35;16.41;80.52
65058;HTU21D;51644;51.068;5.860;2023-05-07T02:30:38;16.42;80.48
65058;HTU21D;51644;51.068;5.860;2023-05-07T02:31:37;16.40;80.50
65058;HTU21D;51644;51.068;5.860;2023-05-07T02:32:38;16.39;80.55
65058;HTU21D;51644;51.068;5.860;2023-05-07T02:33:51;16.41;80.59
65058;HTU21D;51644;51.068;5.860;2023-05-07T02:34:50;16.43;80.54
65058;HTU21D;51644;51.068;5.860;2023-05-07T02:35:51;16.45;80.44
65058;HTU21D;51644;51.068;5.860;2023-05-07T02:36:57;16.45;80.39
65058;HTU21D;51644;51.068;5.860;2023-05-07T02:37:58;16.47;80.36
65058;HTU21D;51644;51.068;5.860;2023-05-07T02:38:58;16.47;80.36
65058;HTU21D;51644;51.068;5.860;2023-05-07T02:39:57;16.47;80.35
65058;HTU21D;51644;51.068;5.860;2023-05-07T02:40:58;16.46;80.40
65058;HTU21D;51644;51.068;5.860;2023-05-07T02:42:00;16.46;80.38
65058;HTU21D;51644;51.068;5.860;2023-05-07T02:43:15;16.45;80.42
65058;HTU21D;51644;51.068;5.860;2023-05-07T02:44:17;16.46;80.35
65058;HTU21D;51644;51.068;5.860;2023-05-07T02:45:26;16.49;80.30
65058;HTU21D;51644;51.068;5.860;2023-05-07T02:46:30;16.50;80.26
65058;HTU21D;51644;51.068;5.860;2023-05-07T02:47:34;16.50;80.25
65058;HTU21D;51644;51.068;5.860;2023-05-07T02:48:45;16.51;80.22
65058;HTU21D;51644;51.068;5.860;2023-05-07T02:49:56;16.54;80.10
65058;HTU21D;51644;51.068;5.860;2023-05-07T02:51:00;16.56;80.08
65058;HTU21D;51644;51.068;5.860;2023-05-07T02:52:02;16.58;80.01
65058;HTU21D;51644;51.068;5.860;2023-05-07T02:53:19;16.56;80.00
65058;HTU21D;51644;51.068;5.860;2023-05-07T02:54:21;16.57;80.02
65058;HTU21D;51644;51.068;5.860;2023-05-07T02:55:26;16.57;80.06
65058;HTU21D;51644;51.068;5.860;2023-05-07T02:56:39;16.59;80.06
65058;HTU21D;51644;51.068;5.860;2023-05-07T02:57:41;16.60;80.04
65058;HTU21D;51644;51.068;5.860;2023-05-07T02:58:43;16.60;79.97
65058;HTU21D;51644;51.068;5.860;2023-05-07T02:59:46;16.60;79.97
65058;HTU21D;51644;51.068;5.860;2023-05-07T03:00:51;16.58;79.98
65058;HTU21D;51644;51.068;5.860;2023-05-07T03:02:10;16.58;79.98
65058;HTU21D;51644;51.068;5.860;2023-05-07T03:03:11;16.58;80.01
65058;HTU21D;51644;51.068;5.860;2023-05-07T03:04:10;16.58;80.07
65058;HTU21D;51644;51.068;5.860;2023-05-07T03:05:09;16.56;80.11
65058;HTU21D;51644;51.068;5.860;2023-05-07T03:06:21;16.56;80.17
65058;HTU21D;51644;51.068;5.860;2023-05-07T03:07:20;16.56;80.19
65058;HTU21D;51644;51.068;5.860;2023-05-07T03:08:19;16.54;80.21
65058;HTU21D;51644;51.068;5.860;2023-05-07T03:09:18;16.56;80.21
65058;HTU21D;51644;51.068;5.860;2023-05-07T03:10:17;16.55;80.20
65058;HTU21D;51644;51.068;5.860;2023-05-07T03:11:17;16.56;80.17
65058;HTU21D;51644;51.068;5.860;2023-05-07T03:12:16;16.56;80.14
65058;HTU21D;51644;51.068;5.860;2023-05-07T03:13:18;16.55;80.14
65058;HTU21D;51644;51.068;5.860;2023-05-07T03:14:20;16.59;79.99
65058;HTU21D;51644;51.068;5.860;2023-05-07T03:15:19;16.57;80.03
65058;HTU21D;51644;51.068;5.860;2023-05-07T03:16:18;16.57;80.02
65058;HTU21D;51644;51.068;5.860;2023-05-07T03:17:16;16.57;80.01
65058;HTU21D;51644;51.068;5.860;2023-05-07T03:18:15;16.56;79.99
65058;HTU21D;51644;51.068;5.860;2023-05-07T03:19:16;16.52;80.03
65058;HTU21D;51644;51.068;5.860;2023-05-07T03:20:15;16.49;80.15
65058;HTU21D;51644;51.068;5.860;2023-05-07T03:21:16;16.47;80.20
65058;HTU21D;51644;51.068;5.860;2023-05-07T03:22:15;16.45;80.32
65058;HTU21D;51644;51.068;5.860;2023-05-07T03:23:13;16.45;80.38
65058;HTU21D;51644;51.068;5.860;2023-05-07T03:24:12;16.46;80.30
65058;HTU21D;51644;51.068;5.860;2023-05-07T03:25:11;16.49;80.12
65058;HTU21D;51644;51.068;5.860;2023-05-07T03:26:10;16.52;79.98
65058;HTU21D;51644;51.068;5.860;2023-05-07T03:27:11;16.55;79.85
65058;HTU21D;51644;51.068;5.860;2023-05-07T03:28:10;16.55;79.72
65058;HTU21D;51644;51.068;5.860;2023-05-07T03:29:17;16.55;79.62
65058;HTU21D;51644;51.068;5.860;2023-05-07T03:30:16;16.58;79.56
65058;HTU21D;51644;51.068;5.860;2023-05-07T03:31:25;16.58;79.51
65058;HTU21D;51644;51.068;5.860;2023-05-07T03:32:25;16.59;79.44
65058;HTU21D;51644;51.068;5.860;2023-05-07T03:33:23;16.59;79.31
65058;HTU21D;51644;51.068;5.860;2023-05-07T03:34:22;16.60;79.24
65058;HTU21D;51644;51.068;5.860;2023-05-07T03:35:21;16.60;79.16
65058;HTU21D;51644;51.068;5.860;2023-05-07T03:36:20;16.62;79.04
65058;HTU21D;51644;51.068;5.860;2023-05-07T03:37:19;16.62;78.97
65058;HTU21D;51644;51.068;5.860;2023-05-07T03:38:20;16.61;78.97
65058;HTU21D;51644;51.068;5.860;2023-05-07T03:39:19;16.58;78.98
65058;HTU21D;51644;51.068;5.860;2023-05-07T03:40:17;16.57;79.04
65058;HTU21D;51644;51.068;5.860;2023-05-07T03:41:23;16.56;79.11
65058;HTU21D;51644;51.068;5.860;2023-05-07T03:42:22;16.52;79.21
65058;HTU21D;51644;51.068;5.860;2023-05-07T03:43:23;16.48;79.30
65058;HTU21D;51644;51.068;5.860;2023-05-07T03:44:29;16.43;79.44
65058;HTU21D;51644;51.068;5.860;2023-05-07T03:45:29;16.41;79.56
65058;HTU21D;51644;51.068;5.860;2023-05-07T03:46:39;16.34;79.70
65058;HTU21D;51644;51.068;5.860;2023-05-07T03:47:39;16.31;79.85
65058;HTU21D;51644;51.068;5.860;2023-05-07T03:48:39;16.28;79.98
65058;HTU21D;51644;51.068;5.860;2023-05-07T03:49:39;16.25;80.01
65058;HTU21D;51644;51.068;5.860;2023-05-07T03:50:38;16.22;80.17
65058;HTU21D;51644;51.068;5.860;2023-05-07T03:51:37;16.20;80.27
65058;HTU21D;51644;51.068;5.860;2023-05-07T03:52:37;16.16;80.40
65058;HTU21D;51644;51.068;5.860;2023-05-07T03:53:38;16.14;80.46
65058;HTU21D;51644;51.068;5.860;2023-05-07T03:54:37;16.11;80.54
65058;HTU21D;51644;51.068;5.860;2023-05-07T03:55:38;16.06;80.68
65058;HTU21D;51644;51.068;5.860;2023-05-07T03:56:42;16.03;80.80
65058;HTU21D;51644;51.068;5.860;2023-05-07T03:57:43;16.00;80.91
65058;HTU21D;51644;51.068;5.860;2023-05-07T03:58:45;15.96;81.04
65058;HTU21D;51644;51.068;5.860;2023-05-07T03:59:44;15.91;81.17
65058;HTU21D;51644;51.068;5.860;2023-05-07T04:00:43;15.88;81.30
65058;HTU21D;51644;51.068;5.860;2023-05-07T04:01:51;15.83;81.43
65058;HTU21D;51644;51.068;5.860;2023-05-07T04:02:52;15.80;81.59
65058;HTU21D;51644;51.068;5.860;2023-05-07T04:03:58;15.76;81.68
65058;HTU21D;51644;51.068;5.860;2023-05-07T04:05:01;15.74;81.81
65058;HTU21D;51644;51.068;5.860;2023-05-07T04:05:59;15.72;81.91
65058;HTU21D;51644;51.068;5.860;2023-05-07T04:07:03;15.71;81.95
65058;HTU21D;51644;51.068;5.860;2023-05-07T04:08:07;15.68;82.04
65058;HTU21D;51644;51.068;5.860;2023-05-07T04:09:12;15.67;82.09
65058;HTU21D;51644;51.068;5.860;2023-05-07T04:10:19;15.66;82.13
65058;HTU21D;51644;51.068;5.860;2023-05-07T04:11:22;15.66;82.14
65058;HTU21D;51644;51.068;5.860;2023-05-07T04:12:21;15.66;82.20
65058;HTU21D;51644;51.068;5.860;2023-05-07T04:13:21;15.67;82.15
65058;HTU21D;51644;51.068;5.860;2023-05-07T04:14:20;15.68;82.11
65058;HTU21D;51644;51.068;5.860;2023-05-07T04:15:20;15.69;82.02
65058;HTU21D;51644;51.068;5.860;2023-05-07T04:16:19;15.71;82.01
65058;HTU21D;51644;51.068;5.860;2023-05-07T04:17:25;15.73;81.90
65058;HTU21D;51644;51.068;5.860;2023-05-07T04:18:27;15.76;81.80
65058;HTU21D;51644;51.068;5.860;2023-05-07T04:19:26;15.81;81.62
65058;HTU21D;51644;51.068;5.860;2023-05-07T04:20:28;15.82;81.50
65058;HTU21D;51644;51.068;5.860;2023-05-07T04:21:34;15.86;81.30
65058;HTU21D;51644;51.068;5.860;2023-05-07T04:22:33;15.90;81.13
65058;HTU21D;51644;51.068;5.860;2023-05-07T04:23:31;15.93;80.96
65058;HTU21D;51644;51.068;5.860;2023-05-07T04:24:34;15.99;80.81
65058;HTU21D;51644;51.068;5.860;2023-05-07T04:25:34;16.03;80.66
65058;HTU21D;51644;51.068;5.860;2023-05-07T04:26:40;16.06;80.53
65058;HTU21D;51644;51.068;5.860;2023-05-07T04:27:39;16.11;80.40
65058;HTU21D;51644;51.068;5.860;2023-05-07T04:28:39;16.13;80.30
65058;HTU21D;51644;51.068;5.860;2023-05-07T04:29:39;16.18;80.17
65058;HTU21D;51644;51.068;5.860;2023-05-07T04:30:42;16.22;80.01
65058;HTU21D;51644;51.068;5.860;2023-05-07T04:31:43;16.26;79.88
65058;HTU21D;51644;51.068;5.860;2023-05-07T04:32:45;16.30;79.80
65058;HTU21D;51644;51.068;5.860;2023-05-07T04:33:44;16.32;79.72
65058;HTU21D;51644;51.068;5.860;2023-05-07T04:34:46;16.34;79.66
65058;HTU21D;51644;51.068;5.860;2023-05-07T04:35:45;16.34;79.60
65058;HTU21D;51644;51.068;5.860;2023-05-07T04:36:45;16.37;79.54
65058;HTU21D;51644;51.068;5.860;2023-05-07T04:37:46;16.39;79.49
65058;HTU21D;51644;51.068;5.860;2023-05-07T04:38:59;16.41;79.49
65058;HTU21D;51644;51.068;5.860;2023-05-07T04:39:59;16.44;79.45
65058;HTU21D;51644;51.068;5.860;2023-05-07T04:41:05;16.48;79.32
65058;HTU21D;51644;51.068;5.860;2023-05-07T04:42:15;16.49;79.21
65058;HTU21D;51644;51.068;5.860;2023-05-07T04:43:14;16.52;79.15
65058;HTU21D;51644;51.068;5.860;2023-05-07T04:44:18;16.54;79.08
65058;HTU21D;51644;51.068;5.860;2023-05-07T04:45:24;16.59;79.01
65058;HTU21D;51644;51.068;5.860;2023-05-07T04:46:25;16.62;78.90
65058;HTU21D;51644;51.068;5.860;2023-05-07T04:47:24;16.63;78.78
65058;HTU21D;51644;51.068;5.860;2023-05-07T04:48:24;16.66;78.64
65058;HTU21D;51644;51.068;5.860;2023-05-07T04:49:24;16.72;78.56
65058;HTU21D;51644;51.068;5.860;2023-05-07T04:50:25;16.75;78.40
65058;HTU21D;51644;51.068;5.860;2023-05-07T04:51:28;16.81;78.18
65058;HTU21D;51644;51.068;5.860;2023-05-07T04:52:27;16.85;78.01
65058;HTU21D;51644;51.068;5.860;2023-05-07T04:53:26;16.91;77.82
65058;HTU21D;51644;51.068;5.860;2023-05-07T04:54:26;16.94;77.60
65058;HTU21D;51644;51.068;5.860;2023-05-07T04:55:25;16.99;77.42
65058;HTU21D;51644;51.068;5.860;2023-05-07T04:56:27;17.04;77.24
65058;HTU21D;51644;51.068;5.860;2023-05-07T04:57:27;17.08;77.05
65058;HTU21D;51644;51.068;5.860;2023-05-07T04:58:27;17.13;76.86
65058;HTU21D;51644;51.068;5.860;2023-05-07T04:59:26;17.16;76.76
65058;HTU21D;51644;51.068;5.860;2023-05-07T05:00:25;17.18;76.73
65058;HTU21D;51644;51.068;5.860;2023-05-07T05:01:25;17.20;76.71
65058;HTU21D;51644;51.068;5.860;2023-05-07T05:02:24;17.22;76.61
65058;HTU21D;51644;51.068;5.860;2023-05-07T05:03:23;17.25;76.50
65058;HTU21D;51644;51.068;5.860;2023-05-07T05:04:25;17.26;76.42
65058;HTU21D;51644;51.068;5.860;2023-05-07T05:05:25;17.28;76.37
65058;HTU21D;51644;51.068;5.860;2023-05-07T05:06:26;17.29;76.37
65058;HTU21D;51644;51.068;5.860;2023-05-07T05:07:28;17.28;76.42
65058;HTU21D;51644;51.068;5.860;2023-05-07T05:08:26;17.26;76.46
65058;HTU21D;51644;51.068;5.860;2023-05-07T05:09:29;17.24;76.51
65058;HTU21D;51644;51.068;5.860;2023-05-07T05:10:33;17.22;76.52
65058;HTU21D;51644;51.068;5.860;2023-05-07T05:11:32;17.17;76.68
65058;HTU21D;51644;51.068;5.860;2023-05-07T05:12:32;17.11;76.76
65058;HTU21D;51644;51.068;5.860;2023-05-07T05:13:47;17.08;76.95
65058;HTU21D;51644;51.068;5.860;2023-05-07T05:14:53;17.06;77.01
65058;HTU21D;51644;51.068;5.860;2023-05-07T05:15:52;17.04;77.14
65058;HTU21D;51644;51.068;5.860;2023-05-07T05:17:00;17.04;77.18
65058;HTU21D;51644;51.068;5.860;2023-05-07T05:18:01;17.04;77.21
65058;HTU21D;51644;51.068;5.860;2023-05-07T05:19:14;17.06;77.16
65058;HTU21D;51644;51.068;5.860;2023-05-07T05:20:26;17.09;77.09
65058;HTU21D;51644;51.068;5.860;2023-05-07T05:21:27;17.11;77.00
65058;HTU21D;51644;51.068;5.860;2023-05-07T05:22:36;17.15;76.89
65058;HTU21D;51644;51.068;5.860;2023-05-07T05:23:35;17.18;76.81
65058;HTU21D;51644;51.068;5.860;2023-05-07T05:24:37;17.23;76.74
65058;HTU21D;51644;51.068;5.860;2023-05-07T05:25:40;17.28;76.53
65058;HTU21D;51644;51.068;5.860;2023-05-07T05:26:42;17.33;76.27
65058;HTU21D;51644;51.068;5.860;2023-05-07T05:27:41;17.37;76.02
65058;HTU21D;51644;51.068;5.860;2023-05-07T05:28:40;17.41;75.77
65058;HTU21D;51644;51.068;5.860;2023-05-07T05:29:39;17.47;75.60
65058;HTU21D;51644;51.068;5.860;2023-05-07T05:30:39;17.49;75.45
65058;HTU21D;51644;51.068;5.860;2023-05-07T05:31:38;17.53;75.34
65058;HTU21D;51644;51.068;5.860;2023-05-07T05:32:40;17.59;75.15
65058;HTU21D;51644;51.068;5.860;2023-05-07T05:33:39;17.61;75.00
65058;HTU21D;51644;51.068;5.860;2023-05-07T05:34:41;17.65;74.93
65058;HTU21D;51644;51.068;5.860;2023-05-07T05:35:40;17.67;74.75
65058;HTU21D;51644;51.068;5.860;2023-05-07T05:36:44;17.68;74.57
65058;HTU21D;51644;51.068;5.860;2023-05-07T05:37:51;17.73;74.52
65058;HTU21D;51644;51.068;5.860;2023-05-07T05:38:52;17.76;74.40
65058;HTU21D;51644;51.068;5.860;2023-05-07T05:39:54;17.78;74.31
65058;HTU21D;51644;51.068;5.860;2023-05-07T05:40:54;17.81;74.25
65058;HTU21D;51644;51.068;5.860;2023-05-07T05:41:53;17.81;74.22
65058;HTU21D;51644;51.068;5.860;2023-05-07T05:42:56;17.82;74.22
65058;HTU21D;51644;51.068;5.860;2023-05-07T05:44:09;17.81;74.29
65058;HTU21D;51644;51.068;5.860;2023-05-07T05:45:11;17.82;74.33
65058;HTU21D;51644;51.068;5.860;2023-05-07T05:46:15;17.82;74.44
65058;HTU21D;51644;51.068;5.860;2023-05-07T05:47:29;17.82;74.50
65058;HTU21D;51644;51.068;5.860;2023-05-07T05:48:29;17.82;74.54
65058;HTU21D;51644;51.068;5.860;2023-05-07T05:49:29;17.79;74.60
65058;HTU21D;51644;51.068;5.860;2023-05-07T05:50:28;17.76;74.67
65058;HTU21D;51644;51.068;5.860;2023-05-07T05:51:27;17.73;74.79
65058;HTU21D;51644;51.068;5.860;2023-05-07T05:52:26;17.67;74.93
65058;HTU21D;51644;51.068;5.860;2023-05-07T05:53:26;17.64;75.01
65058;HTU21D;51644;51.068;5.860;2023-05-07T05:54:28;17.62;75.12
65058;HTU21D;51644;51.068;5.860;2023-05-07T05:55:28;17.59;75.22
65058;HTU21D;51644;51.068;5.860;2023-05-07T05:56:29;17.58;75.33
65058;HTU21D;51644;51.068;5.860;2023-05-07T05:57:33;17.53;75.50
65058;HTU21D;51644;51.068;5.860;2023-05-07T05:58:32;17.53;75.57
65058;HTU21D;51644;51.068;5.860;2023-05-07T05:59:34;17.50;75.76
65058;HTU21D;51644;51.068;5.860;2023-05-07T06:00:36;17.51;75.82
65058;HTU21D;51644;51.068;5.860;2023-05-07T06:01:50;17.55;75.77
65058;HTU21D;51644;51.068;5.860;2023-05-07T06:02:51;17.61;75.63
65058;HTU21D;51644;51.068;5.860;2023-05-07T06:03:56;17.67;75.47
65058;HTU21D;51644;51.068;5.860;2023-05-07T06:04:57;17.73;75.25
65058;HTU21D;51644;51.068;5.860;2023-05-07T06:05:56;17.79;74.99
65058;HTU21D;51644;51.068;5.860;2023-05-07T06:06:55;17.81;74.84
65058;HTU21D;51644;51.068;5.860;2023-05-07T06:07:56;17.83;74.70
65058;HTU21D;51644;51.068;5.860;2023-05-07T06:08:56;17.82;74.69
65058;HTU21D;51644;51.068;5.860;2023-05-07T06:10:03;17.83;74.71
65058;HTU21D;51644;51.068;5.860;2023-05-07T06:11:04;17.85;74.67
65058;HTU21D;51644;51.068;5.860;2023-05-07T06:12:12;17.89;74.58
65058;HTU21D;51644;51.068;5.860;2023-05-07T06:13:11;17.92;74.41
65058;HTU21D;51644;51.068;5.860;2023-05-07T06:14:13;17.97;74.27
65058;HTU21D;51644;51.068;5.860;2023-05-07T06:15:17;18.03;74.15
65058;HTU21D;51644;51.068;5.860;2023-05-07T06:16:16;18.05;74.00
65058;HTU21D;51644;51.068;5.860;2023-05-07T06:22:52;18.51;72.59
65058;HTU21D;51644;51.068;5.860;2023-05-07T06:24:10;18.58;72.39
65058;HTU21D;51644;51.068;5.860;2023-05-07T06:25:17;18.67;72.24
65058;HTU21D;51644;51.068;5.860;2023-05-07T06:26:16;18.71;72.07
65058;HTU21D;51644;51.068;5.860;2023-05-07T06:27:20;18.76;71.90
65058;HTU21D;51644;51.068;5.860;2023-05-07T06:28:30;18.83;71.78
65058;HTU21D;51644;51.068;5.860;2023-05-07T06:29:34;18.88;71.61
65058;HTU21D;51644;51.068;5.860;2023-05-07T06:30:36;18.94;71.51
65058;HTU21D;51644;51.068;5.860;2023-05-07T06:31:35;18.95;71.37
65058;HTU21D;51644;51.068;5.860;2023-05-07T06:32:37;18.97;71.26
65058;HTU21D;51644;51.068;5.860;2023-05-07T06:33:36;18.98;71.10
65058;HTU21D;51644;51.068;5.860;2023-05-07T06:34:34;18.92;70.94
65058;HTU21D;51644;51.068;5.860;2023-05-07T06:35:36;18.82;71.33